createdAt,value
2023-05-14T00:01:08.175Z,77.55
2023-05-14T00:03:11.128Z,77.58
2023-05-14T00:05:13.803Z,77.27
2023-05-14T00:07:16.700Z,77.42
2023-05-14T00:09:20.611Z,77.67
2023-05-14T00:11:23.200Z,77.62
2023-05-14T00:13:26.271Z,77.43
2023-05-14T00:15:28.854Z,77.52
2023-05-14T00:17:31.493Z,77.38
2023-05-14T00:19:34.070Z,77.23
2023-05-14T00:21:36.658Z,77.07
2023-05-14T00:23:39.316Z,77.10
2023-05-14T00:25:43.446Z,77.03
2023-05-14T00:27:46.042Z,77.21
2023-05-14T00:29:48.597Z,77.45
2023-05-14T00:31:51.337Z,77.41
2023-05-14T00:33:54.050Z,77.61
2023-05-14T00:35:56.695Z,77.53
2023-05-14T00:37:59.273Z,77.15
2023-05-14T00:40:01.838Z,77.45
2023-05-14T00:42:06.119Z,77.42
2023-05-14T00:44:08.726Z,77.75
2023-05-14T00:46:12.399Z,77.89
2023-05-14T00:48:15.138Z,78.01
2023-05-14T00:50:18.830Z,77.38
2023-05-14T00:52:22.070Z,77.68
2023-05-14T00:54:25.026Z,77.79
2023-05-14T00:56:29.107Z,77.84
2023-05-14T00:58:33.412Z,77.77
2023-05-14T01:00:36.285Z,77.99
2023-05-14T01:02:39.055Z,77.84
2023-05-14T01:04:41.874Z,77.71
2023-05-14T01:06:55.061Z,77.74
2023-05-14T01:09:04.517Z,77.49
2023-05-14T01:11:12.513Z,77.14
2023-05-14T01:13:24.212Z,77.61
2023-05-14T01:15:31.743Z,77.21
2023-05-14T01:17:39.312Z,77.56
2023-05-14T01:19:43.862Z,77.76
2023-05-14T01:21:47.809Z,77.87
2023-05-14T01:23:50.377Z,77.46
2023-05-14T01:25:52.967Z,77.32
2023-05-14T01:28:02.227Z,77.42
2023-05-14T01:30:13.411Z,77.72
2023-05-14T01:32:18.446Z,77.79
2023-05-14T01:34:23.847Z,77.88
2023-05-14T01:36:27.417Z,77.79
2023-05-14T01:38:33.916Z,78.17
2023-05-14T01:40:37.912Z,78.14
2023-05-14T01:42:41.385Z,77.92
2023-05-14T01:44:44.276Z,77.91
2023-05-14T01:46:46.849Z,77.84
2023-05-14T01:48:49.419Z,77.73
2023-05-14T01:50:51.991Z,77.78
2023-05-14T01:52:56.518Z,77.77
2023-05-14T01:55:00.809Z,77.47
2023-05-14T01:57:03.381Z,77.53
2023-05-14T01:59:06.205Z,77.42
2023-05-14T02:01:08.766Z,77.46
2023-05-14T02:03:11.420Z,77.72
2023-05-14T02:05:14.498Z,77.48
2023-05-14T02:07:17.176Z,77.51
2023-05-14T02:09:20.884Z,77.09
2023-05-14T02:11:24.789Z,77.44
2023-05-14T02:13:27.410Z,77.55
2023-05-14T02:15:29.967Z,77.39
2023-05-14T02:17:32.627Z,77.15
2023-05-14T02:19:35.241Z,77.09
2023-05-14T02:21:37.812Z,76.78
2023-05-14T02:23:42.021Z,76.58
2023-05-14T02:25:45.119Z,76.34
2023-05-14T02:27:49.494Z,76.75
2023-05-14T02:29:52.075Z,76.74
2023-05-14T02:31:54.830Z,76.56
2023-05-14T02:33:57.577Z,76.30
2023-05-14T02:36:00.162Z,76.17
2023-05-14T02:38:02.764Z,76.68
2023-05-14T02:40:06.524Z,76.75
2023-05-14T02:42:09.130Z,77.05
2023-05-14T02:44:13.079Z,77.25
2023-05-14T02:46:15.667Z,77.48
2023-05-14T02:48:18.250Z,77.81
2023-05-14T02:50:20.920Z,78.11
2023-05-14T02:52:23.729Z,78.19
2023-05-14T02:54:26.280Z,78.18
2023-05-14T02:56:28.874Z,78.32
2023-05-14T02:58:31.441Z,78.15
2023-05-14T03:00:35.437Z,78.32
2023-05-14T03:02:38.735Z,78.82
2023-05-14T03:04:41.688Z,78.71
2023-05-14T03:06:44.220Z,78.55
2023-05-14T03:08:46.814Z,78.75
2023-05-14T03:10:49.383Z,78.53
2023-05-14T03:12:51.966Z,78.53
2023-05-14T03:14:54.513Z,78.88
2023-05-14T03:16:58.500Z,78.26
2023-05-14T03:19:01.176Z,78.63
2023-05-14T03:21:04.364Z,79.23
2023-05-14T03:23:07.114Z,79.41
2023-05-14T03:25:10.247Z,79.76
2023-05-14T03:27:12.800Z,79.83
2023-05-14T03:29:18.003Z,79.82
2023-05-14T03:31:20.789Z,79.69
2023-05-14T03:33:24.790Z,79.46
2023-05-14T03:35:27.463Z,79.56
2023-05-14T03:37:30.071Z,79.69
2023-05-14T03:39:32.698Z,79.40
2023-05-14T03:41:35.912Z,79.40
2023-05-14T03:43:38.527Z,78.86
2023-05-14T03:45:41.249Z,78.49
2023-05-14T03:47:43.838Z,78.97
2023-05-14T03:49:47.819Z,79.21
2023-05-14T03:51:50.574Z,79.26
2023-05-14T03:53:53.101Z,79.59
2023-05-14T03:55:55.666Z,79.35
2023-05-14T03:57:58.211Z,79.45
2023-05-14T04:00:00.782Z,79.26
2023-05-14T04:02:03.405Z,79.33
2023-05-14T04:04:06.266Z,79.12
2023-05-14T04:06:10.229Z,79.31
2023-05-14T04:08:12.776Z,79.27
2023-05-14T04:10:15.387Z,79.42
2023-05-14T04:12:17.953Z,79.31
2023-05-14T04:14:23.002Z,79.47
2023-05-14T04:16:25.753Z,79.44
2023-05-14T04:18:28.426Z,79.45
2023-05-14T04:20:31.050Z,79.53
2023-05-14T04:22:34.971Z,79.47
2023-05-14T04:24:37.602Z,79.30
2023-05-14T04:26:40.190Z,79.56
2023-05-14T04:28:42.772Z,79.26
2023-05-14T04:30:45.655Z,79.19
2023-05-14T04:32:48.267Z,79.35
2023-05-14T04:34:50.910Z,79.44
2023-05-14T04:36:53.482Z,79.43
2023-05-14T04:39:00.121Z,79.37
2023-05-14T04:41:02.974Z,79.64
2023-05-14T04:43:05.539Z,79.70
2023-05-14T04:45:09.188Z,79.57
2023-05-14T04:47:12.482Z,79.77
2023-05-14T04:49:15.048Z,79.70
2023-05-14T04:51:17.619Z,79.92
2023-05-14T04:53:20.263Z,79.98
2023-05-14T04:55:24.284Z,79.87
2023-05-14T04:57:26.852Z,79.88
2023-05-14T04:59:29.428Z,79.77
2023-05-14T05:01:32.070Z,79.79
2023-05-14T05:03:34.768Z,79.93
2023-05-14T05:05:37.338Z,80.21
2023-05-14T05:07:39.888Z,79.85
2023-05-14T05:09:44.002Z,79.68
2023-05-14T05:11:47.926Z,79.77
2023-05-14T05:13:50.479Z,79.71
2023-05-14T05:15:53.067Z,79.71
2023-05-14T05:17:55.673Z,79.92
2023-05-14T05:19:58.281Z,79.67
2023-05-14T05:22:00.862Z,79.78
2023-05-14T05:24:03.503Z,79.52
2023-05-14T05:26:06.313Z,79.81
2023-05-14T05:28:10.244Z,79.84
2023-05-14T05:30:13.514Z,79.79
2023-05-14T05:32:16.139Z,79.92
2023-05-14T05:34:19.441Z,79.74
2023-05-14T05:36:22.004Z,79.95
2023-05-14T05:38:24.572Z,79.69
2023-05-14T05:40:27.362Z,80.03
2023-05-14T05:42:29.920Z,79.94
2023-05-14T05:44:33.896Z,80.01
2023-05-14T05:46:36.686Z,80.02
2023-05-14T05:48:39.236Z,80.17
2023-05-14T05:50:42.814Z,80.00
2023-05-14T05:52:45.439Z,79.81
2023-05-14T05:54:47.978Z,80.03
2023-05-14T05:56:50.708Z,80.08
2023-05-14T05:58:53.276Z,80.47
2023-05-14T06:00:57.690Z,80.48
2023-05-14T06:03:00.360Z,80.43
2023-05-14T06:05:03.222Z,80.31
2023-05-14T06:07:06.060Z,80.50
2023-05-14T06:09:08.987Z,80.45
2023-05-14T06:11:11.588Z,80.46
2023-05-14T06:13:14.229Z,80.67
2023-05-14T06:15:16.925Z,80.50
2023-05-14T06:17:20.827Z,80.45
2023-05-14T06:19:24.013Z,80.45
2023-05-14T06:21:26.630Z,80.30
2023-05-14T06:23:29.208Z,80.05
2023-05-14T06:25:33.264Z,80.03
2023-05-14T06:27:35.839Z,79.95
2023-05-14T06:29:38.473Z,79.83
2023-05-14T06:31:41.139Z,80.24
2023-05-14T06:33:45.271Z,80.23
2023-05-14T06:35:47.926Z,80.34
2023-05-14T06:37:50.510Z,80.57
2023-05-14T06:39:54.375Z,80.53
2023-05-14T06:41:57.810Z,80.52
2023-05-14T06:44:00.359Z,80.44
2023-05-14T06:46:02.934Z,80.40
2023-05-14T06:48:06.169Z,80.61
2023-05-14T06:50:11.255Z,80.56
2023-05-14T06:52:13.860Z,79.95
2023-05-14T06:54:20.439Z,80.29
2023-05-14T06:56:23.503Z,80.31
2023-05-14T06:58:26.076Z,80.43
2023-05-14T07:00:29.503Z,80.65
2023-05-14T07:02:32.219Z,80.86
2023-05-14T07:04:35.030Z,80.58
2023-05-14T07:06:39.055Z,80.55
2023-05-14T07:08:41.880Z,80.76
2023-05-14T07:10:44.460Z,80.68
2023-05-14T07:12:47.015Z,80.66
2023-05-14T07:14:49.995Z,80.84
2023-05-14T07:16:52.787Z,80.70
2023-05-14T07:18:55.545Z,80.73
2023-05-14T07:20:58.175Z,80.57
2023-05-14T07:23:02.082Z,80.34
2023-05-14T07:25:04.857Z,80.28
2023-05-14T07:27:08.498Z,80.35
2023-05-14T07:29:11.050Z,79.58
2023-05-14T07:31:13.694Z,80.11
2023-05-14T07:33:16.275Z,80.32
2023-05-14T07:35:18.853Z,80.51
2023-05-14T07:37:24.172Z,79.79
2023-05-14T07:39:28.245Z,80.85
2023-05-14T07:41:30.786Z,81.03
2023-05-14T07:43:33.435Z,80.89
2023-05-14T07:45:37.593Z,81.08
2023-05-14T07:47:40.716Z,80.75
2023-05-14T07:49:43.422Z,80.96
2023-05-14T07:51:46.142Z,80.66
2023-05-14T07:53:48.721Z,80.80
2023-05-14T07:55:52.787Z,80.71
2023-05-14T07:57:55.548Z,80.59
2023-05-14T07:59:58.137Z,80.91
2023-05-14T08:02:01.002Z,80.86
2023-05-14T08:04:03.653Z,80.95
2023-05-14T08:06:06.572Z,80.64
2023-05-14T08:08:12.467Z,80.48
2023-05-14T08:10:15.182Z,80.53
2023-05-14T08:12:19.114Z,80.55
2023-05-14T08:14:22.057Z,80.02
2023-05-14T08:16:26.146Z,79.36
2023-05-14T08:18:28.811Z,79.58
2023-05-14T08:20:31.629Z,79.43
2023-05-14T08:22:34.272Z,79.10
2023-05-14T08:24:36.874Z,79.23
2023-05-14T08:26:39.479Z,79.10
2023-05-14T08:28:43.360Z,78.90
2023-05-14T08:30:45.950Z,78.97
2023-05-14T08:32:48.592Z,78.87
2023-05-14T08:34:51.640Z,78.96
2023-05-14T08:36:54.557Z,79.23
2023-05-14T08:38:57.146Z,79.34
2023-05-14T08:41:00.511Z,79.38
2023-05-14T08:43:03.632Z,78.57
2023-05-14T08:45:12.951Z,78.54
2023-05-14T08:47:19.012Z,78.44
2023-05-14T08:49:28.851Z,78.30
2023-05-14T08:51:31.466Z,78.11
2023-05-14T08:53:34.037Z,78.01
2023-05-14T08:55:38.614Z,77.70
2023-05-14T08:57:41.235Z,77.49
2023-05-14T08:59:43.807Z,77.21
2023-05-14T09:01:49.262Z,77.10
2023-05-14T09:03:53.799Z,76.75
2023-05-14T09:05:59.393Z,76.73
2023-05-14T09:08:02.767Z,76.27
2023-05-14T09:10:06.093Z,76.41
2023-05-14T09:12:09.904Z,76.51
2023-05-14T09:14:12.920Z,76.14
2023-05-14T09:16:16.556Z,76.52
2023-05-14T09:18:20.969Z,76.71
2023-05-14T09:20:28.539Z,76.27
2023-05-14T09:22:32.847Z,76.36
2023-05-14T09:24:35.615Z,76.13
2023-05-14T09:26:38.161Z,75.81
2023-05-14T09:28:41.447Z,75.50
2023-05-14T09:30:47.580Z,75.29
2023-05-14T09:32:50.628Z,75.44
2023-05-14T09:34:54.613Z,75.40
2023-05-14T09:36:58.602Z,75.15
2023-05-14T09:39:04.007Z,74.21
2023-05-14T09:41:06.565Z,74.30
2023-05-14T09:43:10.051Z,74.24
2023-05-14T09:45:12.849Z,74.00
2023-05-14T09:47:16.325Z,73.96
2023-05-14T09:49:19.239Z,73.65
2023-05-14T09:51:23.164Z,73.32
2023-05-14T09:53:26.070Z,72.42
2023-05-14T09:55:29.055Z,72.53
2023-05-14T09:57:31.668Z,72.78
2023-05-14T09:59:34.283Z,73.06
2023-05-14T10:01:38.196Z,73.24
2023-05-14T10:03:41.599Z,73.09
2023-05-14T10:05:45.020Z,72.94
2023-05-14T10:07:50.512Z,72.65
2023-05-14T10:10:00.640Z,72.48
2023-05-14T10:12:03.372Z,72.33
2023-05-14T10:14:09.506Z,72.33
2023-05-14T10:16:17.373Z,72.30
2023-05-14T10:18:23.918Z,72.41
2023-05-14T10:20:28.652Z,72.39
2023-05-14T10:22:34.594Z,72.97
2023-05-14T10:24:39.236Z,72.08
2023-05-14T10:26:42.352Z,72.24
2023-05-14T10:28:45.263Z,71.30
2023-05-14T10:30:47.899Z,71.31
2023-05-14T10:32:50.619Z,71.26
2023-05-14T10:34:54.650Z,71.06
2023-05-14T10:37:00.402Z,70.82
2023-05-14T10:39:05.064Z,70.11
2023-05-14T10:41:12.717Z,69.64
2023-05-14T10:43:17.000Z,69.95
2023-05-14T10:45:19.985Z,70.25
2023-05-14T10:47:23.300Z,70.66
2023-05-14T10:49:39.842Z,69.94
2023-05-14T10:51:49.366Z,69.86
2023-05-14T10:53:52.156Z,69.75
2023-05-14T10:55:56.382Z,69.52
2023-05-14T10:58:01.373Z,68.70
2023-05-14T11:00:08.991Z,68.73
2023-05-14T11:02:23.432Z,68.66
2023-05-14T11:04:26.247Z,68.45
2023-05-14T11:06:29.221Z,68.31
2023-05-14T11:08:32.281Z,68.10
2023-05-14T11:10:35.986Z,67.62
2023-05-14T11:12:40.664Z,67.17
2023-05-14T11:14:44.675Z,67.29
2023-05-14T11:16:48.382Z,66.95
2023-05-14T11:18:55.767Z,67.31
2023-05-14T11:21:02.083Z,67.59
2023-05-14T11:23:04.636Z,67.08
2023-05-14T11:25:10.362Z,65.94
2023-05-14T11:27:13.159Z,66.35
2023-05-14T11:29:15.849Z,66.48
2023-05-14T11:31:20.007Z,66.68
2023-05-14T11:33:22.654Z,66.33
2023-05-14T11:35:25.545Z,66.02
2023-05-14T11:37:28.112Z,65.72
2023-05-14T11:39:31.873Z,65.78
2023-05-14T11:41:34.502Z,65.74
2023-05-14T11:43:37.439Z,66.10
2023-05-14T11:45:40.058Z,66.40
2023-05-14T11:47:44.004Z,65.96
2023-05-14T11:49:46.997Z,65.02
2023-05-14T11:51:49.535Z,65.38
2023-05-14T11:53:52.122Z,65.87
2023-05-14T11:55:57.641Z,65.53
2023-05-14T11:58:00.308Z,64.55
2023-05-14T12:00:04.622Z,64.67
2023-05-14T12:02:11.654Z,64.32
2023-05-14T12:04:16.236Z,64.97
2023-05-14T12:06:19.419Z,65.14
2023-05-14T12:08:22.375Z,65.13
2023-05-14T12:10:25.363Z,65.01
2023-05-14T12:12:28.293Z,64.89
2023-05-14T12:14:30.862Z,64.62
2023-05-14T12:16:35.440Z,64.04
2023-05-14T12:18:39.576Z,63.69
2023-05-14T12:20:48.800Z,63.98
2023-05-14T12:22:51.428Z,64.31
2023-05-14T12:24:55.309Z,63.76
2023-05-14T12:26:58.006Z,64.03
2023-05-14T12:29:01.984Z,64.22
2023-05-14T12:31:04.681Z,63.96
2023-05-14T12:33:07.303Z,64.03
2023-05-14T12:35:10.266Z,64.07
2023-05-14T12:37:14.203Z,64.07
2023-05-14T12:39:16.814Z,64.14
2023-05-14T12:41:19.439Z,64.35
2023-05-14T12:43:22.062Z,64.20
2023-05-14T12:45:24.804Z,62.60
2023-05-14T12:47:27.540Z,62.28
2023-05-14T12:49:30.115Z,62.47
2023-05-14T12:51:32.685Z,62.56
2023-05-14T12:53:36.672Z,62.34
2023-05-14T12:55:39.253Z,62.28
2023-05-14T12:57:42.561Z,62.46
2023-05-14T12:59:45.115Z,62.43
2023-05-14T13:01:47.702Z,62.33
2023-05-14T13:03:50.496Z,61.87
2023-05-14T13:05:53.685Z,62.37
2023-05-14T13:08:00.050Z,60.97
2023-05-14T13:10:05.519Z,59.83
2023-05-14T13:12:08.755Z,59.83
2023-05-14T13:14:11.336Z,59.18
2023-05-14T13:16:16.922Z,59.59
2023-05-14T13:18:19.640Z,62.86
2023-05-14T13:20:23.586Z,63.56
2023-05-14T13:22:26.222Z,64.39
2023-05-14T13:24:28.812Z,65.76
2023-05-14T13:26:32.760Z,67.35
2023-05-14T13:28:35.349Z,67.70
2023-05-14T13:30:37.976Z,68.27
2023-05-14T13:32:42.267Z,68.73
2023-05-14T13:34:44.972Z,69.04
2023-05-14T13:36:50.684Z,69.13
2023-05-14T13:38:53.231Z,69.45
2023-05-14T13:41:02.109Z,69.12
2023-05-14T13:43:06.032Z,68.96
2023-05-14T13:45:09.404Z,68.38
2023-05-14T13:47:11.962Z,67.96
2023-05-14T13:49:14.547Z,67.65
2023-05-14T13:51:17.277Z,67.03
2023-05-14T13:53:20.462Z,66.50
2023-05-14T13:55:23.156Z,65.39
2023-05-14T13:57:26.014Z,65.01
2023-05-14T13:59:29.925Z,64.80
2023-05-14T14:01:32.778Z,64.37
2023-05-14T14:03:35.402Z,64.54
2023-05-14T14:05:38.133Z,64.19
2023-05-14T14:07:40.782Z,64.21
2023-05-14T14:09:43.338Z,64.93
2023-05-14T14:11:45.928Z,64.82
2023-05-14T14:13:48.542Z,65.25
2023-05-14T14:15:52.790Z,65.34
2023-05-14T14:17:55.689Z,65.06
2023-05-14T14:19:58.270Z,64.62
2023-05-14T14:22:00.853Z,64.34
2023-05-14T14:24:03.507Z,63.72
2023-05-14T14:26:06.092Z,62.08
2023-05-14T14:28:08.647Z,62.08
2023-05-14T14:30:15.613Z,61.70
2023-05-14T14:32:20.193Z,60.77
2023-05-14T14:34:22.750Z,60.49
2023-05-14T14:36:25.298Z,59.56
2023-05-14T14:38:27.845Z,59.58
2023-05-14T14:40:30.576Z,59.73
2023-05-14T14:42:33.188Z,59.32
2023-05-14T14:44:35.758Z,58.31
2023-05-14T14:46:38.294Z,57.66
2023-05-14T14:48:42.188Z,55.42
2023-05-14T14:50:44.770Z,55.36
2023-05-14T14:52:47.998Z,55.47
2023-05-14T14:54:50.718Z,56.11
2023-05-14T14:56:53.390Z,56.24
2023-05-14T14:58:55.966Z,56.07
2023-05-14T15:00:59.164Z,56.51
2023-05-14T15:03:01.868Z,56.78
2023-05-14T15:05:06.893Z,56.79
2023-05-14T15:07:09.461Z,56.70
2023-05-14T15:09:12.036Z,57.13
2023-05-14T15:11:15.196Z,57.30
2023-05-14T15:13:17.741Z,57.32
2023-05-14T15:15:20.905Z,57.34
2023-05-14T15:17:23.947Z,57.24
2023-05-14T15:19:26.501Z,57.29
2023-05-14T15:21:30.458Z,56.22
2023-05-14T15:23:33.468Z,54.48
2023-05-14T15:25:36.772Z,54.29
2023-05-14T15:27:39.308Z,53.98
2023-05-14T15:29:42.355Z,53.65
2023-05-14T15:31:45.949Z,52.86
2023-05-14T15:33:48.551Z,52.21
2023-05-14T15:35:51.271Z,51.51
2023-05-14T15:37:56.953Z,50.92
2023-05-14T15:39:59.563Z,50.65
2023-05-14T15:42:02.170Z,51.33
2023-05-14T15:44:04.926Z,51.37
2023-05-14T15:46:08.455Z,51.93
2023-05-14T15:48:11.483Z,52.57
2023-05-14T15:50:14.063Z,53.00
2023-05-14T15:52:16.677Z,54.04
2023-05-14T15:54:20.647Z,55.26
2023-05-14T15:56:23.383Z,57.28
2023-05-14T15:58:26.087Z,60.06
2023-05-14T16:00:28.672Z,60.10
2023-05-14T16:02:33.221Z,61.19
2023-05-14T16:04:35.932Z,62.36
2023-05-14T16:06:41.844Z,63.06
2023-05-14T16:08:44.407Z,63.47
2023-05-14T16:10:48.296Z,64.06
2023-05-14T16:12:50.868Z,65.06
2023-05-14T16:14:53.914Z,65.82
2023-05-14T16:16:56.491Z,66.83
2023-05-14T16:18:59.103Z,69.01
2023-05-14T16:21:01.984Z,68.74
2023-05-14T16:23:04.554Z,68.91
2023-05-14T16:25:07.759Z,69.66
2023-05-14T16:27:11.936Z,69.54
2023-05-14T16:29:14.613Z,69.84
2023-05-14T16:31:17.228Z,70.05
2023-05-14T16:33:19.808Z,69.53
2023-05-14T16:35:22.400Z,69.86
2023-05-14T16:37:25.014Z,70.29
2023-05-14T16:39:27.575Z,69.80
2023-05-14T16:41:30.157Z,69.52
2023-05-14T16:43:34.073Z,69.58
2023-05-14T16:45:37.395Z,70.23
2023-05-14T16:47:40.031Z,70.88
2023-05-14T16:49:43.241Z,75.48
2023-05-14T16:51:46.007Z,76.99
2023-05-14T16:53:48.561Z,76.83
2023-05-14T16:55:51.130Z,76.46
2023-05-14T16:57:53.709Z,75.00
2023-05-14T16:59:57.704Z,74.79
2023-05-14T17:02:00.619Z,76.15
2023-05-14T17:04:03.352Z,76.34
2023-05-14T17:06:06.476Z,76.21
2023-05-14T17:08:09.050Z,76.09
2023-05-14T17:10:11.927Z,76.39
2023-05-14T17:12:14.492Z,76.59
2023-05-14T17:14:17.047Z,76.18
2023-05-14T17:16:21.918Z,76.16
2023-05-14T17:18:24.623Z,76.53
2023-05-14T17:20:28.581Z,78.61
2023-05-14T17:22:31.761Z,79.45
2023-05-14T17:24:35.086Z,78.59
2023-05-14T17:26:38.592Z,78.51
2023-05-14T17:28:41.145Z,78.08
2023-05-14T17:30:43.764Z,77.66
2023-05-14T17:32:50.308Z,78.24
2023-05-14T17:34:53.520Z,78.22
2023-05-14T17:36:56.068Z,78.29
2023-05-14T17:38:58.708Z,78.20
2023-05-14T17:41:02.060Z,78.03
2023-05-14T17:43:04.737Z,77.01
2023-05-14T17:45:08.838Z,74.20
2023-05-14T17:47:11.478Z,74.17
2023-05-14T17:49:15.413Z,72.55
2023-05-14T17:51:17.957Z,73.28
2023-05-14T17:53:20.614Z,73.12
2023-05-14T17:55:23.410Z,73.29
2023-05-14T17:57:26.607Z,73.32
2023-05-14T17:59:29.224Z,73.47
2023-05-14T18:01:31.913Z,74.38
2023-05-14T18:03:34.683Z,74.58
2023-05-14T18:05:39.357Z,74.65
2023-05-14T18:07:41.936Z,74.92
2023-05-14T18:12:19.331Z,74.93
2023-05-14T18:14:21.918Z,74.97
2023-05-14T18:16:24.639Z,75.04
2023-05-14T18:18:27.437Z,75.10
2023-05-14T18:20:30.059Z,75.18
2023-05-14T18:22:34.144Z,75.03
2023-05-14T18:24:36.687Z,74.89
2023-05-14T18:26:39.251Z,74.35
2023-05-14T18:28:42.332Z,74.51
2023-05-14T18:30:45.299Z,74.92
2023-05-14T18:32:47.917Z,75.36
2023-05-14T18:34:51.324Z,75.24
2023-05-14T18:36:53.972Z,75.34
2023-05-14T18:38:58.342Z,75.47
2023-05-14T18:41:00.989Z,74.83
2023-05-14T18:43:04.325Z,74.00
2023-05-14T18:45:07.563Z,74.52
2023-05-14T18:47:11.326Z,74.70
2023-05-14T18:49:13.861Z,74.77
2023-05-14T18:51:17.336Z,74.36
2023-05-14T18:53:19.915Z,73.82
2023-05-14T18:55:24.428Z,73.81
2023-05-14T18:57:29.031Z,73.74
2023-05-14T18:59:31.881Z,73.66
2023-05-14T19:01:34.450Z,73.79
2023-05-14T19:03:37.126Z,73.97
2023-05-14T19:05:39.848Z,74.08
2023-05-14T19:07:43.730Z,73.73
2023-05-14T19:09:47.303Z,74.68
2023-05-14T19:11:51.581Z,74.55
2023-05-14T19:13:56.968Z,74.58
2023-05-14T19:15:59.685Z,74.32
2023-05-14T19:18:02.575Z,74.24
2023-05-14T19:20:07.327Z,74.02
2023-05-14T19:22:09.911Z,73.74
2023-05-14T19:24:12.571Z,73.29
2023-05-14T19:26:15.251Z,73.35
2023-05-14T19:28:19.880Z,73.49
2023-05-14T19:30:22.809Z,73.24
2023-05-14T19:32:25.493Z,73.34
2023-05-14T19:34:28.070Z,73.04
2023-05-14T19:36:31.510Z,72.98
2023-05-14T19:38:34.305Z,72.69
2023-05-14T19:40:36.899Z,72.55
2023-05-14T19:42:39.484Z,73.29
2023-05-14T19:44:44.282Z,73.39
2023-05-14T19:46:47.006Z,73.40
2023-05-14T19:48:49.653Z,73.59
2023-05-14T19:50:52.826Z,73.50
2023-05-14T19:52:56.667Z,73.19
2023-05-14T19:54:59.208Z,73.38
2023-05-14T19:57:01.850Z,73.35
2023-05-14T19:59:04.448Z,73.12
2023-05-14T20:01:08.572Z,72.92
2023-05-14T20:03:11.289Z,73.14
2023-05-14T20:05:16.821Z,73.03
2023-05-14T20:07:20.316Z,73.19
2023-05-14T20:09:22.900Z,73.11
2023-05-14T20:11:25.582Z,73.36
2023-05-14T20:13:28.143Z,73.30
2023-05-14T20:15:31.156Z,73.21
2023-05-14T20:17:35.075Z,72.84
2023-05-14T20:19:37.617Z,72.80
2023-05-14T20:21:40.140Z,72.65
2023-05-14T20:23:42.673Z,72.61
2023-05-14T20:25:45.294Z,72.74
2023-05-14T20:27:47.872Z,72.64
2023-05-14T20:29:51.432Z,72.69
2023-05-14T20:31:53.962Z,71.46
2023-05-14T20:33:57.924Z,71.85
2023-05-14T20:36:03.537Z,72.21
2023-05-14T20:38:06.512Z,72.62
2023-05-14T20:40:12.546Z,72.24
2023-05-14T20:42:15.492Z,71.94
2023-05-14T20:44:19.175Z,72.02
2023-05-14T20:46:23.192Z,72.01
2023-05-14T20:48:25.963Z,72.16
2023-05-14T20:50:30.088Z,71.99
2023-05-14T20:52:32.691Z,72.14
2023-05-14T20:54:35.296Z,72.09
2023-05-14T20:56:37.868Z,72.19
2023-05-14T20:58:40.446Z,71.35
2023-05-14T21:00:43.272Z,72.79
2023-05-14T21:02:46.452Z,73.63
2023-05-14T21:04:49.209Z,73.89
2023-05-14T21:06:53.214Z,73.57
2023-05-14T21:08:55.781Z,73.92
2023-05-14T21:10:58.402Z,73.35
2023-05-14T21:13:00.983Z,73.73
2023-05-14T21:15:03.619Z,73.73
2023-05-14T21:17:06.567Z,73.69
2023-05-14T21:19:09.329Z,73.64
2023-05-14T21:21:11.899Z,72.62
2023-05-14T21:23:16.052Z,73.58
2023-05-14T21:25:19.134Z,74.20
2023-05-14T21:27:24.552Z,73.69
2023-05-14T21:29:27.384Z,73.83
2023-05-14T21:31:30.006Z,74.14
2023-05-14T21:33:32.908Z,73.54
2023-05-14T21:35:35.467Z,73.75
2023-05-14T21:37:39.336Z,73.76
2023-05-14T21:39:43.267Z,73.60
2023-05-14T21:41:45.863Z,73.46
2023-05-14T21:43:48.519Z,73.07
2023-05-14T21:45:51.069Z,73.25
2023-05-14T21:47:53.798Z,73.12
2023-05-14T21:49:56.438Z,72.69
2023-05-14T21:51:58.988Z,72.75
2023-05-14T21:54:01.569Z,72.72
2023-05-14T21:56:06.035Z,72.94
2023-05-14T21:58:09.324Z,72.60
2023-05-14T22:00:13.309Z,72.56
2023-05-14T22:02:15.958Z,72.73
2023-05-14T22:04:18.620Z,72.55
2023-05-14T22:06:21.393Z,72.98
2023-05-14T22:08:24.418Z,73.96
2023-05-14T22:10:27.044Z,74.82
2023-05-14T22:12:31.255Z,75.61
2023-05-14T22:14:33.940Z,75.60
2023-05-14T22:16:36.560Z,75.14
2023-05-14T22:18:39.419Z,75.08
2023-05-14T22:20:42.072Z,74.34
2023-05-14T22:22:44.647Z,73.98
2023-05-14T22:24:47.229Z,73.78
2023-05-14T22:26:49.821Z,73.87
2023-05-14T22:28:53.757Z,73.30
2023-05-14T22:30:56.454Z,73.26
2023-05-14T22:32:59.150Z,73.03
2023-05-14T22:35:04.186Z,72.69
2023-05-14T22:37:09.596Z,72.46
2023-05-14T22:39:13.504Z,72.48
2023-05-14T22:41:17.405Z,71.58
2023-05-14T22:43:19.955Z,71.86
2023-05-14T22:45:24.185Z,72.03
2023-05-14T22:47:26.993Z,71.99
2023-05-14T22:49:29.621Z,71.91
2023-05-14T22:51:32.688Z,71.88
2023-05-14T22:53:35.264Z,71.67
2023-05-14T22:55:37.938Z,70.97
2023-05-14T22:57:40.602Z,71.88
2023-05-14T22:59:43.152Z,71.44
2023-05-14T23:01:47.171Z,71.76
2023-05-14T23:03:49.771Z,71.44
2023-05-14T23:05:53.013Z,71.61
2023-05-14T23:07:56.025Z,71.21
2023-05-14T23:09:58.696Z,71.29
2023-05-14T23:12:01.290Z,71.17
2023-05-14T23:14:03.861Z,71.15
2023-05-14T23:16:06.673Z,70.72
2023-05-14T23:18:10.794Z,70.83
2023-05-14T23:20:13.733Z,70.63
2023-05-14T23:22:16.316Z,70.35
2023-05-14T23:24:18.925Z,70.19
2023-05-14T23:26:21.591Z,70.04
2023-05-14T23:28:24.295Z,69.80
2023-05-14T23:30:26.847Z,70.14
2023-05-14T23:32:29.483Z,70.22
2023-05-14T23:34:34.585Z,70.24
2023-05-14T23:36:37.341Z,70.11
2023-05-14T23:38:40.658Z,70.02
2023-05-14T23:40:43.256Z,69.42
2023-05-14T23:42:46.383Z,69.55
2023-05-14T23:44:49.082Z,69.61
2023-05-14T23:46:51.717Z,69.67
2023-05-14T23:48:57.012Z,70.06
2023-05-14T23:51:03.568Z,70.19
2023-05-14T23:53:06.111Z,70.03
2023-05-14T23:55:09.420Z,69.55
2023-05-14T23:57:14.509Z,70.04
2023-05-14T23:59:17.392Z,69.98
